Terminal Aerodrome Forecast
Issued by NWS

Home | Current Version | Previous Version | Text Only | Print | Product List | Glossary On
Versions: 1 2 3 4 5 6 7 8 9 10 11 12 13
857
FTUS46 KMFR 111741
TAFOTH
TAF
KOTH 111741Z 1118/1218 17005KT P6SM -SHRA SCT035 BKN050 BKN090
     FM112100 17008KT P6SM FEW030 BKN050 OVC120
     FM120900 17010G20KT 4SM -RA BR BKN020 OVC035=

USA.gov is the U.S. government's official web portal to all federal, state and local government web resources and services.